Sequan Truck Trail (1166, 625) Station Data

Red Flag Warning: No
Fire Weather Zone: 250
SDGE Region: Eastern
Lat/Lon: 32.798/-116.779

Observations

Time Wind Speed/Gust Temp(F) RH Fuel Moist Fuel Temp(F) Dewpt(F) Tmax(F) Tmin(F) Accum Precip 10-min Precip SL Press(mb)
5/24 8:30am 21 4 G 8 70° 44% - - 47° 71° 53.2° - - -
5/24 8:20am 81 10 G 13 70° 37% - - 42° 71° 53.2° - - -
5/24 8:10am 81 12 G 15 68° 39% - - 42° 69.8° 53.2° - - -
5/24 8:00am 87 11 G 15 66° 40% - - 41° 69.8° 53.2° - - -
5/24 7:50am 91 9 G 13 65° 44% - - 42° 69.8° 53.2° - - -
5/24 7:40am 101 9 G 12 62° 53% - - 45° 69.8° 53.2° - - -
5/24 7:30am 98 8 G 12 60° 62% - - 47° 69.8° 53.2° - - -
5/24 7:20am 92 10 G 13 57° 78% - - 50° 69.8° 53.2° - - -
5/24 7:10am 82 7 G 11 55° 92% - - 52° 69.8° 53.2° - - -
5/24 7:00am 33 4 G 7 54° 94% - - 52° 69.8° 53.2° - - -
5/24 6:50am 282 4 G 8 54° 93% - - 52° 69.8° 53.2° - - -
5/24 6:40am 290 6 G 14 54° 90% - - 51° 69.8° 53.3° - - -
5/24 6:30am 314 6 G 9 55° 76% - - 48° 69.8° 53.4° - - -
5/24 6:20am 347 6 G 9 57° 67% - - 46° 69.8° 54.7° - - -
5/24 6:10am 26 4 G 8 66° 37% - - 38° 69.8° 59.2° - - -
5/24 6:00am 101 9 G 14 68° 31% - - 37° 69.8° 59.2° - - -
5/24 5:50am 93 12 G 14 68° 30% - - 36° 69.8° 59.2° - - -
5/24 5:40am 92 13 G 14 69° 30% - - 36° 69.8° 59.2° - - -
5/24 5:30am 88 14 G 15 69° 31% - - 37° 69.6° 59.2° - - -
5/24 5:20am 89 13 G 15 68° 33% - - 38° 69.1° 59.2° - - -
5/24 5:10am 84 14 G 15 67° 36% - - 39° 69.1° 59.2° - - -
5/24 5:00am 84 14 G 15 67° 37% - - 39° 69.1° 59.2° - - -
5/24 4:50am 84 13 G 15 66° 39% - - 40° 69.1° 59.2° - - -
5/24 4:40am 95 11 G 14 64° 46% - - 42° 69.1° 59.2° - - -
5/24 4:30am 89 10 G 12 62° 51% - - 44° 69.1° 59.2° - - -
5/24 4:20am 114 7 G 9 61° 56% - - 45° 69.1° 59.2° - - -
5/24 4:10am 89 5 G 7 62° 54% - - 45° 69.1° 59.2° - - -
5/24 4:00am 102 3 G 4 62° 55% - - 46° 69.1° 59.2° - - -
5/24 3:50am 152 2 G 3 61° 65% - - 49° 69.1° 59.2° - - -
5/24 3:40am 13 3 G 5 61° 68% - - 50° 69.1° 59.2° - - -
5/24 3:30am 342 4 G 5 61° 75% - - 53° 69.1° 59.3° - - -
5/24 3:20am 9 1 G 4 63° 58% - - 48° 69.1° 62.1° - - -
5/24 3:10am 328 2 G 3 65° 50% - - 46° 69.1° 63.3° - - -
5/24 3:00am 224 3 G 6 66° 48% - - 46° 69.1° 64.6° - - -
5/24 2:50am 99 6 G 9 67° 43% - - 43° 69.1° 64.6° - - -
5/24 2:40am 88 7 G 9 67° 44% - - 44° 69.1° 64.6° - - -
5/24 2:30am 104 8 G 11 68° 44% - - 45° 69.1° 64.6° - - -
5/24 2:20am 100 9 G 11 67° 47% - - 46° 69.1° 64.6° - - -
5/24 2:10am 96 7 G 10 67° 49% - - 47° 69.1° 64.6° - - -
5/24 2:00am 115 6 G 8 67° 51% - - 49° 69.1° 64.6° - - -
5/24 1:50am 111 6 G 8 68° 50% - - 49° 69.1° 64.6° - - -
5/24 1:40am 86 7 G 9 67° 51% - - 49° 69.1° 64.6° - - -
5/24 1:30am 90 7 G 10 67° 51% - - 49° 69.1° 64.6° - - -
5/24 1:20am 115 7 G 10 67° 52% - - 48° 69.1° 64.6° - - -
5/24 1:10am 96 10 G 12 68° 50% - - 49° 69.1° 64.6° - - -
5/24 1:00am 86 12 G 13 68° 55% - - 51° 69.1° 64.6° - - -
5/24 12:50am 87 11 G 13 68° 55% - - 52° 69.1° 64.6° - - -
5/24 12:40am 91 10 G 13 67° 57% - - 51° 68.4° 64.6° - - -
5/24 12:30am 98 9 G 11 67° 58% - - 51° 68° 64.6° - - -
5/24 12:20am 73 6 G 8 65° 62% - - 52° 67.3° 64.6° - - -
5/24 12:10am 71 4 G 7 66° 64% - - 53° 66.2° 65.1° - - -
5/24 12:00am 106 1 G 2 66° 64% - - 53° 88.8° 64.9° - - -
5/23 11:50pm 84 2 G 3 66° 64% - - 53° 88.8° 64.9° - - -
5/23 11:40pm 41 4 G 5 66° 63% - - 53° 88.8° 64.9° - - -
5/23 11:30pm 92 5 G 6 68° 60% - - 53° 88.8° 66.4° - - -
5/23 11:20pm 115 5 G 7 68° 59% - - 53° 88.8° 66.4° - - -
5/23 11:10pm 116 6 G 9 68° 59% - - 54° 88.8° 66.4° - - -
5/23 11:00pm 104 6 G 8 69° 60% - - 54° 88.8° 66.4° - - -
5/23 10:50pm 109 6 G 8 68° 61% - - 54° 88.8° 66.4° - - -
5/23 10:40pm 98 5 G 7 69° 60% - - 55° 88.8° 66.4° - - -
5/23 10:30pm 95 6 G 7 69° 60% - - 55° 88.8° 66.4° - - -
5/23 10:20pm 97 4 G 6 70° 59% - - 55° 88.8° 66.4° - - -
5/23 10:10pm 110 3 G 5 69° 60% - - 55° 88.8° 66.4° - - -
5/23 10:00pm 128 3 G 6 69° 62% - - 55° 88.8° 66.4° - - -
5/23 9:50pm 92 4 G 6 68° 63% - - 55° 88.8° 66.4° - - -
5/23 9:40pm 52 3 G 4 68° 64% - - 55° 88.8° 66.4° - - -
5/23 9:30pm 67 1 G 2 68° 63% - - 55° 88.8° 66.4° - - -
5/23 9:20pm 209 1 G 2 69° 62% - - 55° 88.8° 66.4° - - -
5/23 9:10pm 246 2 G 3 69° 60% - - 55° 88.8° 66.4° - - -
5/23 9:00pm 273 2 G 3 70° 57% - - 55° 88.8° 66.4° - - -
5/23 8:50pm 291 2 G 3 71° 57% - - 55° 88.8° 66.4° - - -
5/23 8:40pm 255 2 G 3 71° 57% - - 55° 88.8° 66.4° - - -
5/23 8:30pm 263 2 G 3 72° 55% - - 55° 88.8° 66.4° - - -
5/23 8:20pm 248 3 G 4 72° 55% - - 55° 88.8° 66.4° - - -
5/23 8:10pm 272 2 G 3 72° 55% - - 55° 88.8° 66.4° - - -
5/23 8:00pm 251 2 G 3 73° 55% - - 55° 88.8° 66.4° - - -
5/23 7:50pm 288 1 G 3 73° 53% - - 55° 88.8° 66.4° - - -
5/23 7:40pm 218 2 G 3 74° 52% - - 55° 88.8° 66.4° - - -
5/23 7:30pm 278 1 G 2 74° 51% - - 55° 88.8° 66.4° - - -
5/23 7:20pm 276 2 G 3 74° 53% - - 56° 88.8° 66.4° - - -
5/23 7:10pm 306 1 G 3 75° 52% - - 56° 88.8° 66.4° - - -
5/23 7:00pm 226 2 G 3 75° 52% - - 56° 88.8° 66.4° - - -
5/23 6:50pm 258 3 G 5 75° 51% - - 55° 88.8° 66.4° - - -
5/23 6:40pm 252 4 G 6 75° 50% - - 56° 88.8° 66.4° - - -
5/23 6:30pm 253 5 G 9 76° 50% - - 55° 88.8° 66.4° - - -
5/23 6:20pm 257 5 G 9 76° 49% - - 55° 88.8° 66.4° - - -
5/23 6:10pm 261 6 G 10 77° 47% - - 55° 88.8° 66.4° - - -
5/23 6:00pm 264 8 G 11 77° 46% - - 55° 88.8° 66.4° - - -
5/23 5:50pm 256 9 G 13 78° 44% - - 55° 88.8° 66.4° - - -
5/23 5:40pm 258 9 G 12 81° 40% - - 54° 88.8° 66.4° - - -
5/23 5:30pm 286 5 G 11 84° 36% - - 54° 88.8° 66.4° - - -
5/23 5:20pm 306 6 G 11 82° 37% - - 54° 88.8° 66.4° - - -
5/23 5:10pm 298 5 G 10 82° 37% - - 54° 88.8° 66.4° - - -
5/23 5:00pm 307 5 G 9 82° 36% - - 53° 88.8° 66.4° - - -
5/23 4:50pm 308 6 G 11 82° 36% - - 53° 88.8° 66.4° - - -
5/23 4:40pm 288 4 G 9 82° 36% - - 53° 88.8° 66.4° - - -
5/23 4:30pm 270 4 G 10 82° 37% - - 53° 88.8° 66.4° - - -
5/23 4:20pm 284 5 G 11 82° 36% - - 52° 88.8° 66.4° - - -
5/23 4:10pm 288 7 G 11 81° 38% - - 53° 88.8° 66.4° - - -
5/23 4:00pm 298 8 G 13 81° 41% - - 54° 88.8° 66.4° - - -
5/23 3:50pm 288 7 G 12 79° 45% - - 56° 88.8° 66.4° - - -
5/23 3:40pm 309 5 G 11 80° 45% - - 56° 88.8° 66.4° - - -
5/23 3:30pm 308 6 G 12 79° 46% - - 57° 88.8° 66.4° - - -
5/23 3:20pm 324 6 G 12 79° 47% - - 57° 88.8° 66.4° - - -
5/23 3:10pm 286 5 G 10 79° 49% - - 58° 88.8° 66.4° - - -
5/23 3:00pm 261 7 G 12 77° 52% - - 58° 88.8° 66.4° - - -
5/23 2:50pm 255 9 G 13 77° 52% - - 58° 88.8° 66.4° - - -
5/23 2:40pm 268 9 G 14 77° 52% - - 58° 88.8° 66.4° - - -
5/23 2:30pm 265 8 G 13 78° 52% - - 58° 88.8° 66.4° - - -
5/23 2:20pm 259 6 G 11 77° 53% - - 58° 88.8° 66.4° - - -
5/23 2:10pm 263 9 G 16 76° 54% - - 58° 88.8° 66.4° - - -
5/23 2:00pm 259 10 G 16 76° 54% - - 58° 88.8° 66.4° - - -
5/23 1:50pm 267 9 G 14 76° 53% - - 58° 88.8° 66.4° - - -
5/23 1:40pm 260 9 G 15 77° 52% - - 58° 88.8° 66.4° - - -
5/23 1:30pm 262 7 G 13 78° 51% - - 58° 88.8° 66.4° - - -
5/23 1:20pm 275 5 G 11 79° 50% - - 58° 88.8° 66.4° - - -
5/23 1:10pm 273 5 G 14 79° 50% - - 59° 88.8° 66.4° - - -
5/23 1:00pm 270 7 G 12 78° 51% - - 58° 88.8° 66.4° - - -
5/23 12:50pm 261 10 G 14 77° 52% - - 58° 88.8° 66.4° - - -
5/23 12:40pm 254 10 G 15 79° 49% - - 58° 88.8° 66.4° - - -
5/23 12:30pm 268 8 G 14 79° 48% - - 58° 88.8° 66.4° - - -
5/23 12:20pm 277 7 G 14 82° 43% - - 58° 88.8° 66.4° - - -
5/23 12:10pm 313 8 G 15 83° 40% - - 56° 88.8° 66.4° - - -
5/23 12:00pm 322 7 G 14 84° 36% - - 54° 88.8° 66.4° - - -
5/23 11:50am 287 6 G 12 84° 36% - - 54° 88.8° 66.4° - - -
5/23 11:40am 278 7 G 12 85° 32% - - 51° 88.8° 66.4° - - -
5/23 11:30am 288 7 G 14 84° 33% - - 52° 88.8° 66.4° - - -
5/23 11:20am 270 9 G 14 83° 32% - - 51° 88.8° 66.4° - - -
5/23 11:10am 271 7 G 13 85° 29% - - 49° 88.8° 66.4° - - -
5/23 11:00am 310 6 G 13 86° 27% - - 48° 88.8° 66.4° - - -
5/23 10:50am 310 5 G 9 87° 26% - - 48° 88.8° 66.4° - - -
5/23 10:40am 317 3 G 7 86° 26% - - 48° 88.6° 66.4° - - -
5/23 10:30am 337 4 G 8 84° 28% - - 48° 85.8° 66.4° - - -
5/23 10:20am 342 5 G 8 84° 28% - - 47° 85.8° 66.4° - - -
5/23 10:10am 352 6 G 8 83° 28% - - 47° 85.8° 66.4° - - -
5/23 10:00am 341 5 G 7 83° 28% - - 46° 85.8° 66.4° - - -
5/23 9:50am 25 2 G 6 85° 26% - - 46° 85.8° 66.4° - - -
5/23 9:40am 1 1 G 3 85° 27% - - 47° 85.4° 66.4° - - -
5/23 9:30am 0 2 G 5 84° 27% - - 46° 84.7° 66.4° - - -
5/23 9:20am 13 2 G 6 84° 26% - - 45° 84.7° 66.4° - - -
5/23 9:10am 169 1 G 3 81° 26% - - 42° 83.7° 66.4° - - -
5/23 9:00am 205 2 G 5 80° 27% - - 43° 81.5° 66.4° - - -
5/23 8:50am 135 1 G 4 79° 28% - - 43° 80.2° 66.4° - - -
5/23 8:40am 99 3 G 4 77° 28% - - 42° 78° 66.4° - - -
5/23 8:30am 122 3 G 5 76° 32% - - 44° 77.1° 66.4° - - -
5/23 8:20am 134 2 G 3 76° 34% - - 46° 77.1° 66.4° - - -
5/23 8:10am 137 1 G 2 75° 33% - - 44° 76.3° 66.4° - - -
5/23 8:00am 103 2 G 3 74° 34% - - 43° 74.8° 66.4° - - -
5/23 7:50am 100 2 G 3 72° 32% - - 41° 73.7° 66.4° - - -
5/23 7:40am 79 2 G 3 72° 29% - - 37° 72.4° 66.4° - - -
5/23 7:30am 56 2 G 3 71° 29% - - 37° 71.7° 66.4° - - -
5/23 7:20am 38 3 G 5 70° 28% - - 36° 71.7° 66.4° - - -
5/23 7:10am 84 4 G 5 70° 29% - - 36° 71.7° 66.4° - - -
5/23 7:00am 85 5 G 8 70° 29% - - 36° 71.7° 66.4° - - -
5/23 6:50am 98 7 G 9 70° 28% - - 35° 71.7° 66.4° - - -
5/23 6:40am 103 6 G 8 70° 28% - - 36° 71.7° 66.4° - - -
5/23 6:30am 106 6 G 8 70° 28% - - 36° 71.7° 66.4° - - -
5/23 6:20am 100 6 G 8 70° 29% - - 36° 71.7° 66.4° - - -
5/23 6:10am 100 5 G 7 71° 28% - - 36° 71.7° 66.4° - - -
5/23 6:00am 114 5 G 7 70° 29% - - 36° 71.7° 66.4° - - -